(°C)
18°
19°
20°
21°
23°
24°
24°
(°C)
16°
17°
18°
20°
22°
23°
23°
SSW
SSW
SW
SW
SSW
SSW
SSW
(km/h)
10-20
10-19
10-19
9-21
8-23
8-25
9-24
(mm)
0
0
0
0
0
0
0
(%)
19
15
12
8
4
0
0

Elevazione del sole

/ 42°
sun-icon
UV 4
05:14
20:00
Gibbosa calante (253°)
01:09
10:39

METAR per Barnstable (KHYA)

Ora Condizioni Temperatura/
Punto di rugiada
Vento Visibilità Meteo Nuvole Pressione Cambiamento Grezzo
LIFR 16.7°C / 16.1°C 190º 6kt 800m Fog 0.13mm precipitation Vertical Visibility of 200ft. 1015 - KHYA 211256Z 19006KT 1/2SM FG VV002 17/16 A3000 RMK AO2 RAB02E15 SLP158 P0000 T01670161
LIFR 17.2°C / 16.1°C 190º 10kt Gust 15kt 800m Fog 0.13mm precipitation Vertical Visibility of 200ft. - KHYA 211221Z 19010G15KT 1/2SM FG VV002 17/16 A2999 RMK AO2 RAB02E15 P0000 T01720161
LIFR 17.2°C / 16.1°C 190º 10kt 1600m Light Rain Mist 0.13mm precipitation Overcast 300ft - KHYA 211208Z 19010KT 1SM -RA BR OVC003 17/16 A2998 RMK AO2 RAB02 P0000 T01720161
IFR 17.2°C / 16.1°C 190º 10kt 6400m Mist Vertical Visibility of 0ft. 1015 - KHYA 211156Z 19010KT 4SM BR OVC006 17/16 A2998 RMK AO2 SLP153 60027 70036 T01720161 10178 20144 53008
IFR 17.8°C / 16.1°C 190º 11kt Gust 19kt >10km - Broken Clouds 900ft
Broken Clouds 1100ft
Overcast 2500ft
- KHYA 211131Z 19011G19KT 8SM BKN009 BKN011 OVC025 18/16 A2997 RMK AO2 T01780161
LIFR 17.8°C / 16.7°C 190º 10kt Gust 18kt >10km - Broken Clouds 400ft
Overcast 2500ft
- KHYA 211113Z 19010G18KT 8SM BKN004 OVC025 18/17 A2997 RMK AO2 T01780167
MVFR 17.8°C / 16.7°C 190º 6kt >10km - Scattered Clouds 1400ft
Scattered Clouds 1900ft
Broken Clouds 2500ft
- KHYA 211103Z 19006KT 10SM SCT014 SCT019 BKN025 18/17 A2997 RMK AO2 T01780167
LIFR 17.2°C / 16.1°C 180º 6kt >10km - Broken Clouds 400ft
Overcast 2500ft
1014 - KHYA 211056Z 18006KT 9SM BKN004 OVC025 17/16 A2996 RMK AO2 SLP147 T01720161
LIFR 16.1°C / 15.6°C 180º 4kt 6400m Mist Vertical Visibility of 0ft. - KHYA 211009Z 18004KT 4SM BR OVC003 16/16 A2997 RMK AO2 T01610156
LIFR 15.6°C / 15°C 170º 8kt 2400m Mist Vertical Visibility of 0ft. 1014 - KHYA 210956Z 17008KT 1 1/2SM BR OVC002 16/15 A2997 RMK AO2 SLP149 T01560150
LIFR 16.7°C / 16.1°C 170º 10kt Gust 17kt >10km - Overcast 300ft 1014 - KHYA 210856Z AUTO 17010G17KT 7SM OVC003 17/16 A2996 RMK AO2 LTG DSNT SE SLP145 60027 T01670161 58023
LIFR 15°C / 14.4°C variable 5kt Gust 16kt 9700m Mist Vertical Visibility of 0ft.
Overcast 3700ft
- KHYA 210819Z AUTO VRB05G16KT 6SM BR BKN003 OVC037 15/14 A2998 RMK AO2 LTG DSNT SE T01500144
IFR 15.6°C / 14.4°C 150º 9kt Gust 16kt >10km - Broken Clouds 500ft
Broken Clouds 1700ft
Overcast 3700ft
- KHYA 210812Z AUTO 15009G16KT 7SM BKN005 BKN017 OVC037 16/14 A2998 RMK AO2 LTG DSNT SE AND S T01560144
MVFR 16.1°C / 15°C 150º variable 130º to 200º 9kt Gust 16kt >10km 1.78mm precipitation Broken Clouds 1900ft
Overcast 3700ft
1015 - KHYA 210756Z AUTO 15009G16KT 130V200 8SM BKN019 OVC037 16/15 A2999 RMK AO2 LTG DSNT S RAE48 SLP155 P0007 T01610150
MVFR 15.6°C / 14.4°C 150º 8kt 6400m Rain Mist 1.02mm precipitation Broken Clouds 2400ft
Broken Clouds 3200ft
Overcast 7500ft
- KHYA 210711Z AUTO 15008KT 4SM RA BR BKN024 BKN032 OVC075 16/14 A3000 RMK AO2 LTG DSNT S P0004 T01560144
MVFR 15°C / 13.9°C 140º 7kt 6400m Rain Mist 5.08mm precipitation Few Clouds 3300ft
Broken Clouds 7500ft
Overcast 11000ft
1015 - KHYA 210656Z AUTO 14007KT 4SM RA BR FEW033 BKN075 OVC110 15/14 A3000 RMK AO2 LTG DSNT S SLP159 P0020 T01500139
MVFR 13.9°C / 13.3°C 170º 6kt 6400m Light Rain Mist 2.03mm precipitation Scattered Clouds 400ft
Broken Clouds 3400ft
Overcast 8000ft
1016 - KHYA 210556Z AUTO 17006KT 4SM -RA BR SCT004 BKN034 OVC080 14/13 A3003 RMK AO2 SLP168 P0008 60009 T01390133 10139 20117 55008
LIFR 13.3°C / 12.2°C 110º 8kt 9700m Light Rain Mist 0.25mm precipitation Broken Clouds 400ft
Overcast 7500ft
1016 - KHYA 210456Z AUTO 11008KT 6SM -RA BR BKN004 OVC075 13/12 A3002 RMK AO2 RAB28 PRESFR SLP165 P0001 T01330122 401610100
LIFR 12.2°C / 11.1°C 140º 10kt >10km - Overcast 400ft - KHYA 210413Z AUTO 14010KT 10SM OVC004 12/11 A3005 RMK AO2 T01220111
IFR 12.2°C / 11.1°C 140º 6kt >10km - Overcast 500ft 1017 - KHYA 210356Z AUTO 14006KT 10SM OVC005 12/11 A3005 RMK AO2 SLP177 T01220111
IFR 12.8°C / 11.7°C 140º 10kt >10km - Broken Clouds 500ft
Broken Clouds 1300ft
Broken Clouds 12000ft
- KHYA 210336Z AUTO 14010KT 10SM BKN005 BKN013 BKN120 13/12 A3005 RMK AO2 T01280117
MVFR 12.2°C / 11.1°C 140º 7kt >10km - Few Clouds 500ft
Broken Clouds 1300ft
Broken Clouds 12000ft
- KHYA 210314Z AUTO 14007KT 10SM FEW005 BKN013 BKN120 12/11 A3004 RMK AO2 T01220111
MVFR 12.2°C / 11.1°C 130º 8kt >10km - Overcast 1300ft - KHYA 210304Z AUTO 13008KT 10SM OVC013 12/11 A3004 RMK AO2 T01220111
MVFR 12.2°C / 11.1°C variable 6kt >10km - Overcast 1500ft 1017 - KHYA 210256Z AUTO VRB06KT 10SM OVC015 12/11 A3005 RMK AO2 SLP177 T01220111 50002

LIFR

16.7°C / 16.1°C

[Più]
Vento 190º 6kt
Visibilità 800m
Meteo Fog 0.13mm precipitation
Nuvole Vertical Visibility of 200ft.
Pressione 1015
Cambiamento -
Grezzo KHYA 211256Z 19006KT 1/2SM FG VV002 17/16 A3000 RMK AO2 RAB02E15 SLP158 P0000 T01670161

LIFR

17.2°C / 16.1°C

[Più]
Vento 190º 10kt Gust 15kt
Visibilità 800m
Meteo Fog 0.13mm precipitation
Nuvole Vertical Visibility of 200ft.
Pressione
Cambiamento -
Grezzo KHYA 211221Z 19010G15KT 1/2SM FG VV002 17/16 A2999 RMK AO2 RAB02E15 P0000 T01720161

LIFR

17.2°C / 16.1°C

[Più]
Vento 190º 10kt
Visibilità 1600m
Meteo Light Rain Mist 0.13mm precipitation
Nuvole Overcast 300ft
Pressione
Cambiamento -
Grezzo KHYA 211208Z 19010KT 1SM -RA BR OVC003 17/16 A2998 RMK AO2 RAB02 P0000 T01720161

IFR

17.2°C / 16.1°C

[Più]
Vento 190º 10kt
Visibilità 6400m
Meteo Mist
Nuvole Vertical Visibility of 0ft.
Pressione 1015
Cambiamento -
Grezzo KHYA 211156Z 19010KT 4SM BR OVC006 17/16 A2998 RMK AO2 SLP153 60027 70036 T01720161 10178 20144 53008

IFR

17.8°C / 16.1°C

[Più]
Vento 190º 11kt Gust 19kt
Visibilità >10km
Meteo -
Nuvole Broken Clouds 900ft
Broken Clouds 1100ft
Overcast 2500ft
Pressione
Cambiamento -
Grezzo KHYA 211131Z 19011G19KT 8SM BKN009 BKN011 OVC025 18/16 A2997 RMK AO2 T01780161

LIFR

17.8°C / 16.7°C

[Più]
Vento 190º 10kt Gust 18kt
Visibilità >10km
Meteo -
Nuvole Broken Clouds 400ft
Overcast 2500ft
Pressione
Cambiamento -
Grezzo KHYA 211113Z 19010G18KT 8SM BKN004 OVC025 18/17 A2997 RMK AO2 T01780167

MVFR

17.8°C / 16.7°C

[Più]
Vento 190º 6kt
Visibilità >10km
Meteo -
Nuvole Scattered Clouds 1400ft
Scattered Clouds 1900ft
Broken Clouds 2500ft
Pressione
Cambiamento -
Grezzo KHYA 211103Z 19006KT 10SM SCT014 SCT019 BKN025 18/17 A2997 RMK AO2 T01780167

LIFR

17.2°C / 16.1°C

[Più]
Vento 180º 6kt
Visibilità >10km
Meteo -
Nuvole Broken Clouds 400ft
Overcast 2500ft
Pressione 1014
Cambiamento -
Grezzo KHYA 211056Z 18006KT 9SM BKN004 OVC025 17/16 A2996 RMK AO2 SLP147 T01720161

LIFR

16.1°C / 15.6°C

[Più]
Vento 180º 4kt
Visibilità 6400m
Meteo Mist
Nuvole Vertical Visibility of 0ft.
Pressione
Cambiamento -
Grezzo KHYA 211009Z 18004KT 4SM BR OVC003 16/16 A2997 RMK AO2 T01610156

LIFR

15.6°C / 15°C

[Più]
Vento 170º 8kt
Visibilità 2400m
Meteo Mist
Nuvole Vertical Visibility of 0ft.
Pressione 1014
Cambiamento -
Grezzo KHYA 210956Z 17008KT 1 1/2SM BR OVC002 16/15 A2997 RMK AO2 SLP149 T01560150

LIFR

16.7°C / 16.1°C

[Più]
Vento 170º 10kt Gust 17kt
Visibilità >10km
Meteo -
Nuvole Overcast 300ft
Pressione 1014
Cambiamento -
Grezzo KHYA 210856Z AUTO 17010G17KT 7SM OVC003 17/16 A2996 RMK AO2 LTG DSNT SE SLP145 60027 T01670161 58023

LIFR

15°C / 14.4°C

[Più]
Vento variable 5kt Gust 16kt
Visibilità 9700m
Meteo Mist
Nuvole Vertical Visibility of 0ft.
Overcast 3700ft
Pressione
Cambiamento -
Grezzo KHYA 210819Z AUTO VRB05G16KT 6SM BR BKN003 OVC037 15/14 A2998 RMK AO2 LTG DSNT SE T01500144

IFR

15.6°C / 14.4°C

[Più]
Vento 150º 9kt Gust 16kt
Visibilità >10km
Meteo -
Nuvole Broken Clouds 500ft
Broken Clouds 1700ft
Overcast 3700ft
Pressione
Cambiamento -
Grezzo KHYA 210812Z AUTO 15009G16KT 7SM BKN005 BKN017 OVC037 16/14 A2998 RMK AO2 LTG DSNT SE AND S T01560144

MVFR

16.1°C / 15°C

[Più]
Vento 150º variable 130º to 200º 9kt Gust 16kt
Visibilità >10km
Meteo 1.78mm precipitation
Nuvole Broken Clouds 1900ft
Overcast 3700ft
Pressione 1015
Cambiamento -
Grezzo KHYA 210756Z AUTO 15009G16KT 130V200 8SM BKN019 OVC037 16/15 A2999 RMK AO2 LTG DSNT S RAE48 SLP155 P0007 T01610150

MVFR

15.6°C / 14.4°C

[Più]
Vento 150º 8kt
Visibilità 6400m
Meteo Rain Mist 1.02mm precipitation
Nuvole Broken Clouds 2400ft
Broken Clouds 3200ft
Overcast 7500ft
Pressione
Cambiamento -
Grezzo KHYA 210711Z AUTO 15008KT 4SM RA BR BKN024 BKN032 OVC075 16/14 A3000 RMK AO2 LTG DSNT S P0004 T01560144

MVFR

15°C / 13.9°C

[Più]
Vento 140º 7kt
Visibilità 6400m
Meteo Rain Mist 5.08mm precipitation
Nuvole Few Clouds 3300ft
Broken Clouds 7500ft
Overcast 11000ft
Pressione 1015
Cambiamento -
Grezzo KHYA 210656Z AUTO 14007KT 4SM RA BR FEW033 BKN075 OVC110 15/14 A3000 RMK AO2 LTG DSNT S SLP159 P0020 T01500139

MVFR

13.9°C / 13.3°C

[Più]
Vento 170º 6kt
Visibilità 6400m
Meteo Light Rain Mist 2.03mm precipitation
Nuvole Scattered Clouds 400ft
Broken Clouds 3400ft
Overcast 8000ft
Pressione 1016
Cambiamento -
Grezzo KHYA 210556Z AUTO 17006KT 4SM -RA BR SCT004 BKN034 OVC080 14/13 A3003 RMK AO2 SLP168 P0008 60009 T01390133 10139 20117 55008

LIFR

13.3°C / 12.2°C

[Più]
Vento 110º 8kt
Visibilità 9700m
Meteo Light Rain Mist 0.25mm precipitation
Nuvole Broken Clouds 400ft
Overcast 7500ft
Pressione 1016
Cambiamento -
Grezzo KHYA 210456Z AUTO 11008KT 6SM -RA BR BKN004 OVC075 13/12 A3002 RMK AO2 RAB28 PRESFR SLP165 P0001 T01330122 401610100

LIFR

12.2°C / 11.1°C

[Più]
Vento 140º 10kt
Visibilità >10km
Meteo -
Nuvole Overcast 400ft
Pressione
Cambiamento -
Grezzo KHYA 210413Z AUTO 14010KT 10SM OVC004 12/11 A3005 RMK AO2 T01220111

IFR

12.2°C / 11.1°C

[Più]
Vento 140º 6kt
Visibilità >10km
Meteo -
Nuvole Overcast 500ft
Pressione 1017
Cambiamento -
Grezzo KHYA 210356Z AUTO 14006KT 10SM OVC005 12/11 A3005 RMK AO2 SLP177 T01220111

IFR

12.8°C / 11.7°C

[Più]
Vento 140º 10kt
Visibilità >10km
Meteo -
Nuvole Broken Clouds 500ft
Broken Clouds 1300ft
Broken Clouds 12000ft
Pressione
Cambiamento -
Grezzo KHYA 210336Z AUTO 14010KT 10SM BKN005 BKN013 BKN120 13/12 A3005 RMK AO2 T01280117

MVFR

12.2°C / 11.1°C

[Più]
Vento 140º 7kt
Visibilità >10km
Meteo -
Nuvole Few Clouds 500ft
Broken Clouds 1300ft
Broken Clouds 12000ft
Pressione
Cambiamento -
Grezzo KHYA 210314Z AUTO 14007KT 10SM FEW005 BKN013 BKN120 12/11 A3004 RMK AO2 T01220111

MVFR

12.2°C / 11.1°C

[Più]
Vento 130º 8kt
Visibilità >10km
Meteo -
Nuvole Overcast 1300ft
Pressione
Cambiamento -
Grezzo KHYA 210304Z AUTO 13008KT 10SM OVC013 12/11 A3004 RMK AO2 T01220111

MVFR

12.2°C / 11.1°C

[Più]
Vento variable 6kt
Visibilità >10km
Meteo -
Nuvole Overcast 1500ft
Pressione 1017
Cambiamento -
Grezzo KHYA 210256Z AUTO VRB06KT 10SM OVC015 12/11 A3005 RMK AO2 SLP177 T01220111 50002

TAF per Barnstable (KHYA)

From till


From till Wind 190º 10kt. Gust 18kt. Visibility 10km or more. Broken Clouds 400ft. Overcast 2500ft.
From till Wind 210º 9kt. Visibility 4800m. Mist . Broken Clouds 300ft.
From till Wind 200º 10kt. Visibility 10km or more. Scattered Clouds 1000ft.
From till Wind 220º 6kt. Visibility 1600m. Mist . Overcast 300ft.
From till Wind 220º 10kt. Wind Shear at 2000ft with winds 260º 40kt. Visibility 1600m. Mist . Scattered Clouds 8000ft.

Grezzo: KHYA 211130Z 2112/2212 19010G18KT P6SM BKN004 OVC025 FM211500 21009KT 3SM BR BKN003 FM211900 20010KT P6SM SCT010 FM220100 22006KT 1SM BR OVC003 FM220500 22010KT 1SM BR SCT080 WS020/26040KT

Radar e nowcasting per Barnstable

Pioviggine
Lieve
Moderato
Forte
Molto forte
Grandine

Il segnaposto è situato a Barnstable. Questa animazione mostra il radar delle precipitazioni per l'ultima ora, nonché una previsione 1h. Una pioviggine o una leggera caduta di neve potrebbero essere invisibili per il radar. L'intensità delle precipitazioni è codificata a colori, dal blu chiaro all'arancione.

Immagine satellitare per Barnstable, Stati Uniti

Il segnaposto è situato a Barnstable. [Più]

L'immagine satellitare in tempo reale combina la luce visibile durante il giorno con la radiazione infrarossa durante la notte. Di notte l'immagine non è scura poiché i raggi infrarossi possono rilevare differenze di temperatura. Purtroppo, le nuvole basse e la nebbia sono difficili da distinguere dalla temperatura del suolo e possono pertanto essere quasi invisibili durante la notte. Le immagini satellitari Meteosat per l'Europa vengono aggiornate in tempo reale ogni 5 minuti. Le immagini GOES-16 / GOES-17 (Nord e Sud America) e Himawari (Asia) vengono aggiornate ogni 10 minuti.

Tornare su